Pagrindinis puslapis
METAR-TAF:

METAR-TAF

Oro uostai :

Adana, Turkija

platuma: 36-59N, ilguma: 035-18E, Aukštis: 20 m

Dabartinis oras

Ataskaita buvo paskelbta 50 minutes, ne 17:20 UTC
Ramus vėjas
Temperatūra 14°C
Drėgmė 67%
Slėgis 1015 hPa
Matomumas 10 km arba daugiau
nėra debesų žemiau 1500 m ir nėra kamuolinių lietaus debesų

METAR: LTAF 281720Z 00000KT CAVOK 14/08 Q1015 NOSIG RMK RWY23 23004KT

Laikas: 21:10 (18:10 UTC)


TAF: trūkstamas

Orai ataskaitas ir orų prognozės (METAR, TAF).

turimą stotys yra geltonos ir raudonos taškus žemėlapyje.

Perkelti pele per norėdami pamatyti stoties vardą.

Tada spustelėkite, norėdami matyti oro stebėjimo ir prognozės.

Norėdami pakeisti žemėlapį: spustelėkite ant žalios mygtukų su juodo kryžiaus žemyn,; žalią mygtuką su brūkšneliu, jei norite nutolinti; arba žalių rodyklių gretimoms žemėlapius.


METAR-TAF: